Time;durP1;ratioP1;P1;durP2;ratioP2;P2;SDS_P1;SDS_P2;PMS_P1;PMS_P2;Temp;Humidity;BMP_temperature;BMP_pressure;BME280_temperature;BME280_humidity;BME280_pressure;Samples;Min_cycle;Max_cycle;Signal;HPM_P1;HPM_P2
2022/06/25 00:02:03;;;;;;;;;;;26.20;61.30;;;;;;5122039;28;19930;-71
2022/06/25 00:07:13;;;;;;;;;;;26.20;61.60;;;;;;5121834;28;19908;-70
2022/06/25 00:09:39;;;;;;;;;;;26.20;61.90;;;;;;5121955;28;19919;-71
2022/06/25 00:15:11;;;;;;;;;;;26.10;62.20;;;;;;5121889;28;19904;-71
2022/06/25 00:17:37;;;;;;;;;;;26.10;62.30;;;;;;5121694;28;19936;-72
2022/06/25 00:20:17;;;;;;;;;;;26.10;62.30;;;;;;5121858;28;19904;-70
2022/06/25 00:22:43;;;;;;;;;;;26.10;62.30;;;;;;5121530;28;20277;-71
2022/06/25 00:25:09;;;;;;;;;;;26.10;62.50;;;;;;5121683;28;19918;-72
2022/06/25 00:27:35;;;;;;;;;;;26.10;62.60;;;;;;5121545;28;19915;-72
2022/06/25 00:30:00;;;;;;;;;;;26.10;62.70;;;;;;5120537;28;19958;-72
2022/06/25 00:32:26;;;;;;;;;;;26.10;62.80;;;;;;5121257;28;19900;-69
2022/06/25 00:34:52;;;;;;;;;;;26.10;62.80;;;;;;5121508;28;19898;-71
2022/06/25 00:37:17;;;;;;;;;;;26.10;63.10;;;;;;5121515;28;19907;-71
2022/06/25 00:39:50;;;;;;;;;;;26.00;63.20;;;;;;5121271;28;19918;-71
2022/06/25 00:42:18;;;;;;;;;;;26.00;63.60;;;;;;5121157;28;19969;-72
2022/06/25 00:44:44;;;;;;;;;;;26.00;63.60;;;;;;5121261;28;19903;-71
2022/06/25 00:47:11;;;;;;;;;;;25.90;64.00;;;;;;5121303;28;19892;-72
2022/06/25 00:49:37;;;;;;;;;;;25.90;64.00;;;;;;5121120;28;19893;-70
2022/06/25 00:52:06;;;;;;;;;;;25.90;64.20;;;;;;5125879;28;19958;-70
2022/06/25 00:54:35;;;;;;;;;;;25.90;64.20;;;;;;5130209;28;19935;-71
2022/06/25 00:57:02;;;;;;;;;;;25.90;64.50;;;;;;5120740;28;19911;-69
2022/06/25 00:59:28;;;;;;;;;;;25.90;64.60;;;;;;5120967;28;19900;-69
2022/06/25 01:01:53;;;;;;;;;;;25.80;65.10;;;;;;5120880;28;19909;-70
2022/06/25 01:04:20;;;;;;;;;;;25.70;65.20;;;;;;5120950;28;19923;-71
2022/06/25 01:06:46;;;;;;;;;;;25.70;65.30;;;;;;5120822;28;19914;-70
2022/06/25 01:09:11;;;;;;;;;;;25.60;65.80;;;;;;5120706;28;19897;-70
2022/06/25 01:14:37;;;;;;;;;;;25.50;66.30;;;;;;5120838;28;19899;-70
2022/06/25 01:17:09;;;;;;;;;;;25.60;66.30;;;;;;5120708;28;19915;-69
2022/06/25 01:19:35;;;;;;;;;;;25.60;66.30;;;;;;5120510;28;19897;-70
2022/06/25 01:22:05;;;;;;;;;;;25.60;66.30;;;;;;5120524;28;19943;-71
2022/06/25 01:24:31;;;;;;;;;;;25.60;66.40;;;;;;5120614;28;19900;-71
2022/06/25 01:26:57;;;;;;;;;;;25.50;66.60;;;;;;5120467;28;20194;-71
2022/06/25 01:29:23;;;;;;;;;;;25.50;66.60;;;;;;5120278;28;19915;-71
2022/06/25 01:31:49;;;;;;;;;;;25.50;66.50;;;;;;5120480;28;19892;-71
2022/06/25 01:34:14;;;;;;;;;;;25.50;66.60;;;;;;5120342;28;19892;-71
2022/06/25 01:36:40;;;;;;;;;;;25.50;66.70;;;;;;5120305;28;19920;-71
2022/06/25 01:39:06;;;;;;;;;;;25.50;67.00;;;;;;5120174;28;19892;-68
2022/06/25 01:41:31;;;;;;;;;;;25.50;66.90;;;;;;5134125;28;19934;-71
2022/06/25 01:43:57;;;;;;;;;;;25.50;67.10;;;;;;5120236;28;19914;-71
2022/06/25 01:46:23;;;;;;;;;;;25.40;67.20;;;;;;5120069;28;19938;-72
2022/06/25 01:48:49;;;;;;;;;;;25.40;67.60;;;;;;5120116;28;19899;-71
2022/06/25 01:51:16;;;;;;;;;;;25.20;68.00;;;;;;5119979;28;19899;-72
2022/06/25 01:53:42;;;;;;;;;;;25.10;68.30;;;;;;5134316;28;19946;-72
2022/06/25 01:56:08;;;;;;;;;;;25.10;68.50;;;;;;5119621;28;19892;-71
2022/06/25 01:58:34;;;;;;;;;;;25.00;68.80;;;;;;5119721;28;19937;-70
2022/06/25 02:00:59;;;;;;;;;;;25.00;69.60;;;;;;5119962;28;19896;-70
2022/06/25 02:03:26;;;;;;;;;;;25.20;68.50;;;;;;5119684;28;19927;-70
2022/06/25 02:06:07;;;;;;;;;;;25.30;68.10;;;;;;5119928;28;19898;-70
2022/06/25 02:08:34;;;;;;;;;;;25.30;67.70;;;;;;5119640;28;19893;-71
2022/06/25 02:11:00;;;;;;;;;;;25.30;67.70;;;;;;5119825;28;19892;-70
2022/06/25 02:13:26;;;;;;;;;;;25.20;68.00;;;;;;5119722;28;19900;-70
2022/06/25 02:15:53;;;;;;;;;;;25.00;68.90;;;;;;5119609;28;19968;-70
2022/06/25 02:18:19;;;;;;;;;;;24.90;69.50;;;;;;5119578;28;19914;-70
2022/06/25 02:20:45;;;;;;;;;;;24.90;69.50;;;;;;5119505;28;19913;-69
2022/06/25 02:23:12;;;;;;;;;;;24.90;69.50;;;;;;5119573;28;19904;-70
2022/06/25 02:25:37;;;;;;;;;;;25.00;69.20;;;;;;5119488;28;19904;-70
2022/06/25 02:28:03;;;;;;;;;;;24.90;69.30;;;;;;5119503;28;19904;-70
2022/06/25 02:30:29;;;;;;;;;;;25.00;68.70;;;;;;5119548;28;19892;-69
2022/06/25 02:32:55;;;;;;;;;;;25.10;68.40;;;;;;5102006;28;19967;-69
2022/06/25 02:35:20;;;;;;;;;;;25.10;68.10;;;;;;5119591;28;19943;-71
2022/06/25 02:37:46;;;;;;;;;;;25.10;68.10;;;;;;5119307;28;19960;-70
2022/06/25 02:40:12;;;;;;;;;;;25.10;68.20;;;;;;5119476;28;19899;-70
2022/06/25 02:42:39;;;;;;;;;;;25.20;67.70;;;;;;5119289;28;19967;-70
2022/06/25 02:45:05;;;;;;;;;;;25.20;67.50;;;;;;5119417;28;19896;-70
2022/06/25 02:47:46;;;;;;;;;;;25.30;67.20;;;;;;5119271;28;19907;-71
2022/06/25 02:50:12;;;;;;;;;;;25.20;67.20;;;;;;5119341;28;19896;-71
2022/06/25 02:52:38;;;;;;;;;;;25.10;67.70;;;;;;5123362;28;19963;-71
2022/06/25 02:55:04;;;;;;;;;;;24.70;68.90;;;;;;5122459;28;19892;-70
2022/06/25 03:00:14;;;;;;;;;;;24.70;69.50;;;;;;5123413;28;19898;-70
2022/06/25 03:02:40;;;;;;;;;;;24.60;70.00;;;;;;5123272;28;19939;-70
2022/06/25 03:05:06;;;;;;;;;;;24.60;69.70;;;;;;5123278;28;19978;-70
2022/06/25 03:07:35;;;;;;;;;;;24.60;69.70;;;;;;5123080;28;19896;-71
2022/06/25 03:10:01;;;;;;;;;;;24.50;69.70;;;;;;5123299;28;19896;-70
2022/06/25 03:12:26;;;;;;;;;;;24.50;70.10;;;;;;5123036;28;19915;-71
2022/06/25 03:14:52;;;;;;;;;;;24.40;70.70;;;;;;5123129;28;19912;-70
2022/06/25 03:17:18;;;;;;;;;;;24.20;71.20;;;;;;5122963;28;19903;-70
2022/06/25 03:19:44;;;;;;;;;;;24.10;71.60;;;;;;5122978;28;19903;-70
2022/06/25 03:22:09;;;;;;;;;;;24.00;71.70;;;;;;5122903;28;19907;-70
2022/06/25 03:24:35;;;;;;;;;;;23.90;72.20;;;;;;5122883;28;19899;-69
2022/06/25 03:27:01;;;;;;;;;;;23.90;72.40;;;;;;5122807;28;19918;-71
2022/06/25 03:29:26;;;;;;;;;;;23.90;72.30;;;;;;5122753;28;19899;-68
2022/06/25 03:31:52;;;;;;;;;;;24.00;71.60;;;;;;5122778;28;19910;-69
2022/06/25 03:34:18;;;;;;;;;;;24.10;70.80;;;;;;5122622;28;19903;-69
2022/06/25 03:36:44;;;;;;;;;;;24.40;70.00;;;;;;5122735;28;19904;-69
2022/06/25 03:39:12;;;;;;;;;;;24.50;69.00;;;;;;5122526;28;19899;-70
2022/06/25 03:41:44;;;;;;;;;;;24.60;67.90;;;;;;5122486;28;19900;-69
2022/06/25 03:44:10;;;;;;;;;;;24.80;67.70;;;;;;5122440;28;19892;-69
2022/06/25 03:46:37;;;;;;;;;;;24.80;67.10;;;;;;5122424;28;19893;-69
2022/06/25 03:49:03;;;;;;;;;;;24.90;66.90;;;;;;5122418;28;19946;-69
2022/06/25 03:51:28;;;;;;;;;;;24.90;66.40;;;;;;5122177;28;19896;-69
2022/06/25 03:53:54;;;;;;;;;;;24.90;66.20;;;;;;5122467;28;19934;-69
2022/06/25 03:56:23;;;;;;;;;;;24.90;66.00;;;;;;5122120;28;19915;-69
2022/06/25 03:58:52;;;;;;;;;;;24.90;66.20;;;;;;5122190;28;19892;-70
2022/06/25 04:01:17;;;;;;;;;;;24.90;66.00;;;;;;5122069;28;19900;-71
2022/06/25 04:03:43;;;;;;;;;;;24.90;65.90;;;;;;5122109;28;19927;-68
2022/06/25 04:06:24;;;;;;;;;;;25.00;65.70;;;;;;5121882;28;19923;-70
2022/06/25 04:08:50;;;;;;;;;;;25.00;65.80;;;;;;5121867;28;19963;-69
2022/06/25 04:11:16;;;;;;;;;;;25.00;65.50;;;;;;5121927;28;19894;-69
2022/06/25 04:13:42;;;;;;;;;;;25.10;65.50;;;;;;5121934;28;19951;-69
2022/06/25 04:16:08;;;;;;;;;;;25.10;65.40;;;;;;5121926;28;19903;-69
2022/06/25 04:18:34;;;;;;;;;;;25.10;65.20;;;;;;5121808;28;19917;-68
2022/06/25 04:20:59;;;;;;;;;;;25.10;65.30;;;;;;5121716;28;19899;-71
2022/06/25 04:23:25;;;;;;;;;;;25.10;65.20;;;;;;5121804;28;19899;-71
2022/06/25 04:25:51;;;;;;;;;;;25.10;65.30;;;;;;5121592;28;19896;-69
2022/06/25 04:31:16;;;;;;;;;;;25.10;65.20;;;;;;5121607;28;19915;-70
2022/06/25 04:33:42;;;;;;;;;;;25.00;65.20;;;;;;5121587;28;19892;-70
2022/06/25 04:36:08;;;;;;;;;;;25.10;65.00;;;;;;5121437;28;19972;-70
2022/06/25 04:38:33;;;;;;;;;;;25.00;65.30;;;;;;5121406;28;19911;-70
2022/06/25 04:40:59;;;;;;;;;;;25.00;65.30;;;;;;5121330;28;19957;-69
2022/06/25 04:43:25;;;;;;;;;;;25.10;65.20;;;;;;5121421;28;19903;-70
2022/06/25 04:45:51;;;;;;;;;;;25.10;65.10;;;;;;5121235;28;19959;-69
2022/06/25 04:48:16;;;;;;;;;;;24.90;65.50;;;;;;5121007;28;19896;-72
2022/06/25 04:50:45;;;;;;;;;;;24.90;66.10;;;;;;5121236;28;19896;-71
2022/06/25 04:53:11;;;;;;;;;;;24.90;66.10;;;;;;5135414;28;19892;-70
2022/06/25 04:55:37;;;;;;;;;;;24.80;66.00;;;;;;5120995;28;19920;-70
2022/06/25 04:58:03;;;;;;;;;;;24.80;66.50;;;;;;5120873;28;19923;-70
2022/06/25 05:00:29;;;;;;;;;;;24.70;67.20;;;;;;5120928;28;19945;-69
2022/06/25 05:02:55;;;;;;;;;;;24.80;66.80;;;;;;5120901;28;19900;-71
2022/06/25 05:05:20;;;;;;;;;;;24.80;67.00;;;;;;5120887;28;19892;-69
2022/06/25 05:07:46;;;;;;;;;;;24.70;66.70;;;;;;5120861;28;19896;-70
2022/06/25 05:10:12;;;;;;;;;;;24.80;66.80;;;;;;5120764;28;19900;-70
2022/06/25 05:15:36;;;;;;;;;;;24.80;65.80;;;;;;5094507;28;19896;-68
2022/06/25 05:18:02;;;;;;;;;;;24.80;66.60;;;;;;5120087;28;19946;-71
2022/06/25 05:20:27;;;;;;;;;;;24.90;65.90;;;;;;5120660;28;19899;-68
2022/06/25 05:22:53;;;;;;;;;;;25.00;65.90;;;;;;5120491;28;19915;-70
2022/06/25 05:25:19;;;;;;;;;;;25.10;65.70;;;;;;5120568;28;19896;-70
2022/06/25 05:27:45;;;;;;;;;;;25.10;65.30;;;;;;5120402;28;19914;-73
2022/06/25 05:30:10;;;;;;;;;;;25.20;64.60;;;;;;5103011;28;19910;-73
2022/06/25 05:32:36;;;;;;;;;;;25.30;64.30;;;;;;5120325;28;19931;-70
2022/06/25 05:35:02;;;;;;;;;;;25.30;64.30;;;;;;5120503;28;19896;-71
2022/06/25 05:37:28;;;;;;;;;;;25.60;63.40;;;;;;5119854;28;19892;-70
2022/06/25 05:39:54;;;;;;;;;;;26.10;62.20;;;;;;5126724;28;19900;-65
2022/06/25 05:42:22;;;;;;;;;;;26.70;60.10;;;;;;5127424;28;19971;-65
2022/06/25 05:44:48;;;;;;;;;;;27.20;57.90;;;;;;5119942;28;19908;-71
2022/06/25 05:47:14;;;;;;;;;;;27.70;56.30;;;;;;5120049;28;19892;-68
2022/06/25 05:49:39;;;;;;;;;;;28.10;55.10;;;;;;5119786;28;19892;-69
2022/06/25 05:52:05;;;;;;;;;;;28.30;54.20;;;;;;5125103;28;19896;-66
2022/06/25 05:54:31;;;;;;;;;;;28.60;53.80;;;;;;5129041;28;19904;-68
2022/06/25 05:56:57;;;;;;;;;;;28.90;52.40;;;;;;5119689;28;19904;-68
2022/06/25 05:59:23;;;;;;;;;;;29.00;52.00;;;;;;5119609;28;19896;-68
2022/06/25 06:01:49;;;;;;;;;;;29.20;51.60;;;;;;5119606;28;19971;-68
2022/06/25 06:04:14;;;;;;;;;;;29.30;51.00;;;;;;5119740;28;19900;-68
2022/06/25 06:06:40;;;;;;;;;;;29.40;50.60;;;;;;5119753;28;19893;-69
2022/06/25 06:09:06;;;;;;;;;;;29.40;50.30;;;;;;5119470;28;19893;-66
2022/06/25 06:11:32;;;;;;;;;;;29.60;50.50;;;;;;5119589;28;19924;-70
2022/06/25 06:13:58;;;;;;;;;;;29.80;50.30;;;;;;5119503;28;19908;-67
2022/06/25 06:16:24;;;;;;;;;;;29.80;49.70;;;;;;5119432;28;19896;-71
2022/06/25 06:18:49;;;;;;;;;;;29.80;49.60;;;;;;5119233;28;19892;-65
2022/06/25 06:21:15;;;;;;;;;;;30.00;49.60;;;;;;5119341;28;19900;-67
2022/06/25 06:23:41;;;;;;;;;;;30.20;49.30;;;;;;5119387;28;19896;-69
2022/06/25 06:26:06;;;;;;;;;;;30.10;49.20;;;;;;5119298;28;19893;-65
2022/06/25 06:28:32;;;;;;;;;;;30.20;48.90;;;;;;5119170;28;19905;-72
2022/06/25 06:30:58;;;;;;;;;;;30.10;49.30;;;;;;5119209;28;19906;-70
2022/06/25 06:33:24;;;;;;;;;;;30.30;49.50;;;;;;5120852;28;19893;-71
2022/06/25 06:35:49;;;;;;;;;;;30.10;49.00;;;;;;5138946;28;19899;-67
2022/06/25 06:38:15;;;;;;;;;;;30.00;48.80;;;;;;5138747;28;19921;-67
2022/06/25 06:40:41;;;;;;;;;;;30.00;49.20;;;;;;5138887;28;19917;-68
2022/06/25 06:43:06;;;;;;;;;;;30.20;48.80;;;;;;5138562;28;19958;-67
2022/06/25 06:45:32;;;;;;;;;;;30.30;49.00;;;;;;5138840;28;19899;-67
2022/06/25 06:47:58;;;;;;;;;;;30.40;48.70;;;;;;5138478;28;19907;-69
2022/06/25 06:50:24;;;;;;;;;;;30.60;48.40;;;;;;5138832;28;19898;-66
2022/06/25 06:52:49;;;;;;;;;;;30.80;47.90;;;;;;5137447;28;19899;-68
2022/06/25 06:55:15;;;;;;;;;;;30.80;47.60;;;;;;5118583;28;19926;-68
2022/06/25 06:57:41;;;;;;;;;;;30.80;47.70;;;;;;5117993;28;19919;-68
2022/06/25 07:00:07;;;;;;;;;;;30.90;46.90;;;;;;5119022;28;19958;-67
2022/06/25 07:02:39;;;;;;;;;;;30.90;46.80;;;;;;5119098;28;19900;-67
2022/06/25 07:05:05;;;;;;;;;;;31.10;47.20;;;;;;5119184;28;19950;-67
2022/06/25 07:07:31;;;;;;;;;;;31.00;46.80;;;;;;5119183;28;19915;-70
2022/06/25 07:09:57;;;;;;;;;;;31.10;46.50;;;;;;5118950;28;19892;-68
2022/06/25 07:12:22;;;;;;;;;;;31.10;45.80;;;;;;5119107;28;19919;-69
2022/06/25 07:14:48;;;;;;;;;;;31.00;45.80;;;;;;5118774;28;19893;-69
2022/06/25 07:17:14;;;;;;;;;;;31.00;46.30;;;;;;5118876;28;19916;-68
2022/06/25 07:19:39;;;;;;;;;;;31.10;46.60;;;;;;5118916;28;19896;-65
2022/06/25 07:22:05;;;;;;;;;;;31.10;46.60;;;;;;5119007;28;19931;-65
2022/06/25 07:24:31;;;;;;;;;;;31.10;46.80;;;;;;5119125;28;19892;-65
2022/06/25 07:26:57;;;;;;;;;;;31.10;46.90;;;;;;5118656;28;19920;-69
2022/06/25 07:29:22;;;;;;;;;;;30.90;46.60;;;;;;5118586;28;19896;-68
2022/06/25 07:31:49;;;;;;;;;;;30.70;47.90;;;;;;5118847;28;19920;-67
2022/06/25 07:34:16;;;;;;;;;;;30.30;47.70;;;;;;5118970;28;19956;-69
2022/06/25 07:36:41;;;;;;;;;;;30.00;48.10;;;;;;5118897;28;19906;-72
2022/06/25 07:39:08;;;;;;;;;;;29.80;48.90;;;;;;5118571;28;19892;-70
2022/06/25 07:41:33;;;;;;;;;;;29.50;48.80;;;;;;5122221;28;19912;-69
2022/06/25 07:43:59;;;;;;;;;;;29.30;49.10;;;;;;5122453;28;19896;-72
2022/06/25 07:46:26;;;;;;;;;;;29.20;48.70;;;;;;5122450;28;19900;-69
2022/06/25 07:48:52;;;;;;;;;;;28.90;49.70;;;;;;5122291;28;19903;-69
2022/06/25 07:54:24;;;;;;;;;;;29.10;49.60;;;;;;5122482;28;19899;-71
2022/06/25 07:56:49;;;;;;;;;;;29.10;49.00;;;;;;5122023;28;19934;-69
2022/06/25 07:59:15;;;;;;;;;;;29.00;49.80;;;;;;5122139;28;19897;-71
2022/06/25 08:01:41;;;;;;;;;;;29.00;49.40;;;;;;5122168;28;19900;-67
2022/06/25 08:04:07;;;;;;;;;;;29.00;50.00;;;;;;5122172;28;19892;-69
2022/06/25 08:06:34;;;;;;;;;;;29.10;49.60;;;;;;5122046;28;19896;-69
2022/06/25 08:09:04;;;;;;;;;;;29.40;49.40;;;;;;5122092;28;19899;-68
2022/06/25 08:11:30;;;;;;;;;;;29.60;49.00;;;;;;5121871;28;19912;-67
2022/06/25 08:13:56;;;;;;;;;;;29.80;48.90;;;;;;5121854;28;19900;-67
2022/06/25 08:16:25;;;;;;;;;;;29.80;49.00;;;;;;5121989;28;19915;-68
2022/06/25 08:18:51;;;;;;;;;;;29.60;49.60;;;;;;5104214;28;19893;-67
2022/06/25 08:21:17;;;;;;;;;;;29.40;50.20;;;;;;5104334;28;19896;-65
2022/06/25 08:23:42;;;;;;;;;;;29.30;50.80;;;;;;5121657;28;19971;-67
2022/06/25 08:26:08;;;;;;;;;;;29.30;51.00;;;;;;5121766;28;19892;-66
2022/06/25 08:28:34;;;;;;;;;;;29.40;49.80;;;;;;5121759;28;19948;-68
2022/06/25 08:31:00;;;;;;;;;;;29.60;49.50;;;;;;5121619;28;19892;-65
2022/06/25 08:33:26;;;;;;;;;;;29.80;49.20;;;;;;5121528;28;19927;-65
2022/06/25 08:35:52;;;;;;;;;;;29.90;49.10;;;;;;5121401;28;19892;-65
2022/06/25 08:38:17;;;;;;;;;;;30.00;48.50;;;;;;5121558;28;19924;-69
2022/06/25 08:40:43;;;;;;;;;;;30.10;48.30;;;;;;5121399;28;19900;-64
2022/06/25 08:43:09;;;;;;;;;;;30.20;48.40;;;;;;5121342;28;19904;-68
2022/06/25 08:45:35;;;;;;;;;;;30.20;48.20;;;;;;5121355;28;19897;-66
2022/06/25 08:48:01;;;;;;;;;;;30.20;48.30;;;;;;5121301;28;19892;-66
2022/06/25 08:50:27;;;;;;;;;;;30.40;48.40;;;;;;5121023;28;19899;-67
2022/06/25 08:52:54;;;;;;;;;;;30.50;47.80;;;;;;5132250;28;19900;-68
2022/06/25 08:55:20;;;;;;;;;;;30.40;48.00;;;;;;5123362;28;19914;-65
2022/06/25 08:57:46;;;;;;;;;;;30.20;48.10;;;;;;5120947;28;19904;-67
2022/06/25 09:00:12;;;;;;;;;;;29.90;48.70;;;;;;5121095;28;19900;-67
2022/06/25 09:02:39;;;;;;;;;;;29.60;49.20;;;;;;5120950;28;19904;-65
2022/06/25 09:05:06;;;;;;;;;;;29.50;49.80;;;;;;5120997;28;19896;-66
2022/06/25 09:07:32;;;;;;;;;;;29.50;49.70;;;;;;5120954;28;19903;-65
2022/06/25 09:09:57;;;;;;;;;;;29.50;49.30;;;;;;5120842;28;19923;-65
2022/06/25 09:12:24;;;;;;;;;;;29.30;49.50;;;;;;5135245;28;19900;-64
2022/06/25 09:14:50;;;;;;;;;;;29.20;51.10;;;;;;5120737;28;19904;-66
2022/06/25 09:17:16;;;;;;;;;;;29.30;51.20;;;;;;5120651;28;19931;-67
2022/06/25 09:19:51;;;;;;;;;;;29.40;52.00;;;;;;5120710;28;19892;-64
2022/06/25 09:22:22;;;;;;;;;;;29.30;52.90;;;;;;5120646;28;20181;-64
2022/06/25 09:24:49;;;;;;;;;;;29.30;53.80;;;;;;5120563;28;19952;-67
2022/06/25 09:27:38;;;;;;;;;;;29.40;54.50;;;;;;5120423;28;19896;-67
2022/06/25 09:30:08;;;;;;;;;;;29.40;54.00;;;;;;5120353;28;20291;-64
2022/06/25 09:32:45;;;;;;;;;;;29.30;54.60;;;;;;5120311;28;19931;-67
2022/06/25 09:35:12;;;;;;;;;;;29.30;55.10;;;;;;5120410;28;19931;-64
2022/06/25 09:37:39;;;;;;;;;;;29.30;55.20;;;;;;5120391;28;19952;-64
2022/06/25 09:40:05;;;;;;;;;;;29.20;55.00;;;;;;5120377;28;19901;-66
2022/06/25 09:42:32;;;;;;;;;;;29.20;54.00;;;;;;5120164;28;19901;-68
2022/06/25 09:44:59;;;;;;;;;;;29.30;54.40;;;;;;5120209;28;19952;-69
2022/06/25 09:47:25;;;;;;;;;;;29.30;54.60;;;;;;5120232;28;19897;-71
2022/06/25 09:50:02;;;;;;;;;;;29.30;54.30;;;;;;5120053;28;19896;-67
2022/06/25 09:52:28;;;;;;;;;;;29.20;53.90;;;;;;5128385;28;19903;-70
2022/06/25 09:54:54;;;;;;;;;;;29.30;54.90;;;;;;5125822;28;19900;-67
2022/06/25 09:57:20;;;;;;;;;;;29.30;53.90;;;;;;5119924;28;19904;-69
2022/06/25 09:59:49;;;;;;;;;;;29.30;54.30;;;;;;5119916;28;19893;-71
2022/06/25 10:02:14;;;;;;;;;;;29.30;54.90;;;;;;5119376;28;19904;-71
2022/06/25 10:04:43;;;;;;;;;;;29.30;55.10;;;;;;5119769;28;19897;-67
2022/06/25 10:07:10;;;;;;;;;;;29.30;54.80;;;;;;5119601;28;19952;-64
2022/06/25 10:09:38;;;;;;;;;;;29.20;55.10;;;;;;5119665;28;19896;-65
2022/06/25 10:12:04;;;;;;;;;;;29.10;55.40;;;;;;5119632;28;19900;-66
2022/06/25 10:14:30;;;;;;;;;;;29.00;55.30;;;;;;5119782;28;19900;-66
2022/06/25 10:16:56;;;;;;;;;;;29.10;54.70;;;;;;5119775;28;19892;-69
2022/06/25 10:19:24;;;;;;;;;;;29.00;54.80;;;;;;5119609;28;19896;-69
2022/06/25 10:21:50;;;;;;;;;;;29.10;54.90;;;;;;5119405;28;19900;-69
2022/06/25 10:24:16;;;;;;;;;;;29.00;55.10;;;;;;5119653;28;19892;-68
2022/06/25 10:26:42;;;;;;;;;;;29.00;54.40;;;;;;5119647;28;19893;-69
2022/06/25 10:29:27;;;;;;;;;;;28.90;55.20;;;;;;5119404;28;19906;-67
2022/06/25 10:32:14;;;;;;;;;;;28.90;55.30;;;;;;5133837;28;19935;-68
2022/06/25 10:35:01;;;;;;;;;;;28.90;55.20;;;;;;5139129;28;20165;-66
2022/06/25 10:37:27;;;;;;;;;;;28.80;55.30;;;;;;5121507;28;19892;-68
2022/06/25 10:39:53;;;;;;;;;;;28.70;55.40;;;;;;5138866;28;19961;-68
2022/06/25 10:45:04;;;;;;;;;;;28.70;55.00;;;;;;5135135;28;19982;-63
2022/06/25 10:47:40;;;;;;;;;;;28.70;55.10;;;;;;5119433;28;19893;-64
2022/06/25 10:50:21;;;;;;;;;;;28.70;55.30;;;;;;5119282;28;19893;-66
2022/06/25 10:53:02;;;;;;;;;;;28.70;55.30;;;;;;5130372;28;19896;-66
2022/06/25 10:55:35;;;;;;;;;;;28.80;55.10;;;;;;5119638;28;19903;-63
2022/06/25 10:58:11;;;;;;;;;;;28.80;54.80;;;;;;5118665;28;19908;-62
2022/06/25 11:00:50;;;;;;;;;;;28.70;55.40;;;;;;5122283;28;19922;-67
2022/06/25 11:03:16;;;;;;;;;;;28.70;55.60;;;;;;5125936;28;19907;-71
2022/06/25 11:05:43;;;;;;;;;;;28.80;55.20;;;;;;5119017;28;19892;-69
2022/06/25 11:08:09;;;;;;;;;;;28.90;54.60;;;;;;5119008;28;19892;-69
2022/06/25 11:10:35;;;;;;;;;;;28.90;54.30;;;;;;5118719;28;19924;-71
2022/06/25 11:13:03;;;;;;;;;;;28.90;54.80;;;;;;5118797;28;19896;-72
2022/06/25 11:15:45;;;;;;;;;;;28.80;54.70;;;;;;5124243;28;19899;-70
2022/06/25 11:18:12;;;;;;;;;;;28.80;54.40;;;;;;5143078;28;19951;-70
2022/06/25 11:20:38;;;;;;;;;;;28.70;55.10;;;;;;5138869;28;19902;-71
2022/06/25 11:23:04;;;;;;;;;;;28.70;55.00;;;;;;5132860;28;19911;-69
2022/06/25 11:28:52;;;;;;;;;;;28.60;55.10;;;;;;5142929;28;19899;-69
2022/06/25 11:31:41;;;;;;;;;;;28.60;55.60;;;;;;5122611;28;19896;-68
2022/06/25 11:34:15;;;;;;;;;;;28.50;55.20;;;;;;5121681;28;19950;-67
2022/06/25 11:36:41;;;;;;;;;;;28.60;55.50;;;;;;5132295;28;19916;-68
2022/06/25 11:39:07;;;;;;;;;;;28.50;54.90;;;;;;5128159;28;19907;-69
2022/06/25 11:41:33;;;;;;;;;;;28.50;54.90;;;;;;5142603;28;19914;-68
2022/06/25 11:44:05;;;;;;;;;;;28.50;55.30;;;;;;5111281;28;19915;-68
2022/06/25 11:46:34;;;;;;;;;;;28.50;55.10;;;;;;5128957;28;19896;-68
2022/06/25 11:49:03;;;;;;;;;;;28.50;54.90;;;;;;5142613;28;19896;-68
2022/06/25 11:51:29;;;;;;;;;;;28.50;54.80;;;;;;5142041;28;19926;-68
2022/06/25 11:53:55;;;;;;;;;;;28.50;54.40;;;;;;5128272;28;19896;-69
2022/06/25 11:56:21;;;;;;;;;;;28.50;54.20;;;;;;5133044;28;19916;-68
2022/06/25 11:58:47;;;;;;;;;;;28.50;54.20;;;;;;5134667;28;19914;-69
2022/06/25 12:01:13;;;;;;;;;;;28.50;53.20;;;;;;5128066;28;19968;-69
2022/06/25 12:03:39;;;;;;;;;;;28.50;53.80;;;;;;5121478;28;19896;-68
2022/06/25 12:06:05;;;;;;;;;;;28.60;53.90;;;;;;5124244;28;20169;-68
2022/06/25 12:08:32;;;;;;;;;;;28.60;53.80;;;;;;5121354;28;19964;-68
2022/06/25 12:10:58;;;;;;;;;;;28.50;54.60;;;;;;5121392;28;19903;-69
2022/06/25 12:13:47;;;;;;;;;;;28.40;54.80;;;;;;5121331;28;19918;-69
2022/06/25 12:16:13;;;;;;;;;;;28.50;54.60;;;;;;5121373;28;19899;-70
2022/06/25 12:18:43;;;;;;;;;;;28.50;54.40;;;;;;5120946;28;19912;-70
2022/06/25 12:21:09;;;;;;;;;;;28.40;55.60;;;;;;5121261;28;20199;-71
2022/06/25 12:23:55;;;;;;;;;;;28.40;54.50;;;;;;5123796;28;19908;-68
2022/06/25 12:26:41;;;;;;;;;;;28.50;54.50;;;;;;5120973;28;19915;-68
2022/06/25 12:29:34;;;;;;;;;;;28.60;54.80;;;;;;5123786;28;19904;-70
2022/06/25 12:32:00;;;;;;;;;;;28.60;54.30;;;;;;5120917;28;19903;-70
2022/06/25 12:34:29;;;;;;;;;;;28.60;54.30;;;;;;5121090;28;19952;-69
2022/06/25 12:36:55;;;;;;;;;;;28.60;55.30;;;;;;5129523;28;19892;-66
2022/06/25 12:39:34;;;;;;;;;;;28.50;55.70;;;;;;5129341;28;19976;-72
2022/06/25 12:42:05;;;;;;;;;;;28.50;55.40;;;;;;5120908;28;19901;-69
2022/06/25 12:44:35;;;;;;;;;;;28.50;54.90;;;;;;5122450;28;19935;-68
2022/06/25 12:47:05;;;;;;;;;;;28.50;54.00;;;;;;5135739;28;19917;-71
2022/06/25 12:49:44;;;;;;;;;;;28.50;54.00;;;;;;5120774;28;19896;-67
2022/06/25 12:52:10;;;;;;;;;;;28.40;53.80;;;;;;5129244;28;19896;-69
2022/06/25 12:54:46;;;;;;;;;;;28.40;54.00;;;;;;5133485;28;19902;-69
2022/06/25 12:57:19;;;;;;;;;;;28.50;54.10;;;;;;5140530;28;19904;-67
2022/06/25 12:59:45;;;;;;;;;;;28.50;53.80;;;;;;5140652;28;20575;-67
2022/06/25 13:02:11;;;;;;;;;;;28.40;53.50;;;;;;5140424;28;19903;-68
2022/06/25 13:04:37;;;;;;;;;;;28.40;54.20;;;;;;5140643;28;19970;-64
2022/06/25 13:07:02;;;;;;;;;;;28.40;54.40;;;;;;5140677;28;19892;-64
2022/06/25 13:09:28;;;;;;;;;;;28.20;53.50;;;;;;5140322;28;19956;-63
2022/06/25 13:11:54;;;;;;;;;;;28.20;54.00;;;;;;5134730;28;19907;-63
2022/06/25 13:14:19;;;;;;;;;;;28.30;55.00;;;;;;5135460;28;19955;-63
2022/06/25 13:16:45;;;;;;;;;;;28.30;53.00;;;;;;5120561;28;19904;-63
2022/06/25 13:19:11;;;;;;;;;;;28.30;53.70;;;;;;5123121;28;19951;-63
2022/06/25 13:21:37;;;;;;;;;;;28.50;53.50;;;;;;5119423;28;19900;-63
2022/06/25 13:24:03;;;;;;;;;;;28.50;52.80;;;;;;5119269;28;19979;-63
2022/06/25 13:26:28;;;;;;;;;;;28.70;52.30;;;;;;5122595;28;19892;-64
2022/06/25 13:28:54;;;;;;;;;;;28.70;52.70;;;;;;5120734;28;19956;-63
2022/06/25 13:31:20;;;;;;;;;;;28.80;52.80;;;;;;5131778;28;19896;-62
2022/06/25 13:33:45;;;;;;;;;;;28.80;53.30;;;;;;5123206;28;19963;-63
2022/06/25 13:36:11;;;;;;;;;;;28.90;52.10;;;;;;5138467;28;19896;-62
2022/06/25 13:38:37;;;;;;;;;;;28.90;51.40;;;;;;5120878;28;19983;-62
2022/06/25 13:41:05;;;;;;;;;;;29.00;51.90;;;;;;5119173;28;19896;-63
2022/06/25 13:43:30;;;;;;;;;;;29.10;51.00;;;;;;5119032;28;19919;-65
2022/06/25 13:45:56;;;;;;;;;;;28.90;51.00;;;;;;5126384;28;19904;-63
2022/06/25 13:48:22;;;;;;;;;;;29.00;51.00;;;;;;5126218;28;19892;-66
2022/06/25 13:50:47;;;;;;;;;;;29.10;51.50;;;;;;5120112;28;19896;-65
2022/06/25 13:53:13;;;;;;;;;;;29.10;51.10;;;;;;5134559;28;19904;-63
2022/06/25 13:55:42;;;;;;;;;;;29.00;51.70;;;;;;5120277;28;19892;-66
2022/06/25 13:58:08;;;;;;;;;;;29.00;52.00;;;;;;5119813;28;19926;-64
2022/06/25 14:00:34;;;;;;;;;;;28.90;52.00;;;;;;5119880;28;19904;-66
2022/06/25 14:03:00;;;;;;;;;;;29.00;52.40;;;;;;5119977;28;19939;-65
2022/06/25 14:05:26;;;;;;;;;;;29.00;52.20;;;;;;5119943;28;19902;-67
2022/06/25 14:07:51;;;;;;;;;;;29.10;51.80;;;;;;5119841;28;19892;-66
2022/06/25 14:10:17;;;;;;;;;;;29.10;52.50;;;;;;5119849;28;19892;-66
2022/06/25 14:12:43;;;;;;;;;;;29.00;52.80;;;;;;5119874;28;19896;-65
2022/06/25 14:15:09;;;;;;;;;;;28.90;52.10;;;;;;5119751;28;19896;-66
2022/06/25 14:17:35;;;;;;;;;;;28.90;51.90;;;;;;5119738;28;19892;-65
2022/06/25 14:20:04;;;;;;;;;;;28.90;51.40;;;;;;5119862;28;19892;-65
2022/06/25 14:22:29;;;;;;;;;;;28.80;51.90;;;;;;5119653;28;19900;-65
2022/06/25 14:27:39;;;;;;;;;;;28.80;52.70;;;;;;5119316;28;19918;-67
2022/06/25 14:30:05;;;;;;;;;;;28.90;53.00;;;;;;5119595;28;19896;-66
2022/06/25 14:32:37;;;;;;;;;;;28.80;53.60;;;;;;5119448;28;19892;-66
2022/06/25 14:35:03;;;;;;;;;;;28.90;53.40;;;;;;5119473;28;19911;-64
2022/06/25 14:42:57;;;;;;;;;;;28.80;53.50;;;;;;5118808;28;19918;-64
2022/06/25 14:45:23;;;;;;;;;;;28.80;52.70;;;;;;5118615;28;20085;-64
2022/06/25 14:47:52;;;;;;;;;;;28.80;52.90;;;;;;5119368;28;19940;-62
2022/06/25 14:50:18;;;;;;;;;;;28.90;52.70;;;;;;5125727;28;19902;-65
2022/06/25 14:52:43;;;;;;;;;;;29.00;53.00;;;;;;5129984;28;19908;-65